sensor_id;sensor_type;location;lat;lon;timestamp;P1;durP1;ratioP1;P2;durP2;ratioP2
56455;SDS011;42354;53.218;6.564;2022-12-07T00:00:55;8.35;;;1.17;;
56455;SDS011;42354;53.218;6.564;2022-12-07T00:03:28;10.55;;;1.60;;
56455;SDS011;42354;53.218;6.564;2022-12-07T00:05:56;12.73;;;1.63;;
56455;SDS011;42354;53.218;6.564;2022-12-07T00:08:22;17.77;;;1.73;;
56455;SDS011;42354;53.218;6.564;2022-12-07T00:10:48;12.48;;;1.45;;
56455;SDS011;42354;53.218;6.564;2022-12-07T00:13:13;8.77;;;1.30;;
56455;SDS011;42354;53.218;6.564;2022-12-07T00:15:38;10.07;;;1.00;;
56455;SDS011;42354;53.218;6.564;2022-12-07T00:18:04;9.25;;;1.25;;
56455;SDS011;42354;53.218;6.564;2022-12-07T00:20:29;11.85;;;1.10;;
56455;SDS011;42354;53.218;6.564;2022-12-07T00:22:55;10.65;;;1.25;;
56455;SDS011;42354;53.218;6.564;2022-12-07T00:25:21;7.82;;;1.27;;
56455;SDS011;42354;53.218;6.564;2022-12-07T00:27:46;16.70;;;1.73;;
56455;SDS011;42354;53.218;6.564;2022-12-07T00:30:11;14.80;;;1.50;;
56455;SDS011;42354;53.218;6.564;2022-12-07T00:32:37;10.82;;;1.08;;
56455;SDS011;42354;53.218;6.564;2022-12-07T00:35:02;12.23;;;1.25;;
56455;SDS011;42354;53.218;6.564;2022-12-07T00:37:28;11.70;;;1.45;;
56455;SDS011;42354;53.218;6.564;2022-12-07T00:39:53;15.32;;;1.20;;
56455;SDS011;42354;53.218;6.564;2022-12-07T00:42:18;8.38;;;1.30;;
56455;SDS011;42354;53.218;6.564;2022-12-07T00:44:44;9.48;;;1.00;;
56455;SDS011;42354;53.218;6.564;2022-12-07T00:47:09;13.73;;;1.20;;
56455;SDS011;42354;53.218;6.564;2022-12-07T00:49:35;4.88;;;1.00;;
56455;SDS011;42354;53.218;6.564;2022-12-07T00:52:00;8.55;;;1.45;;
56455;SDS011;42354;53.218;6.564;2022-12-07T00:54:26;6.63;;;0.93;;
56455;SDS011;42354;53.218;6.564;2022-12-07T00:56:51;6.05;;;1.13;;
56455;SDS011;42354;53.218;6.564;2022-12-07T00:59:16;6.50;;;0.85;;
56455;SDS011;42354;53.218;6.564;2022-12-07T01:01:42;4.43;;;0.63;;
56455;SDS011;42354;53.218;6.564;2022-12-07T01:04:07;10.68;;;0.93;;
56455;SDS011;42354;53.218;6.564;2022-12-07T01:06:33;6.55;;;0.70;;
56455;SDS011;42354;53.218;6.564;2022-12-07T01:08:58;6.40;;;1.00;;
56455;SDS011;42354;53.218;6.564;2022-12-07T01:11:25;7.22;;;0.98;;
56455;SDS011;42354;53.218;6.564;2022-12-07T01:13:53;10.52;;;1.42;;
56455;SDS011;42354;53.218;6.564;2022-12-07T01:16:20;11.32;;;0.90;;
56455;SDS011;42354;53.218;6.564;2022-12-07T01:18:47;9.80;;;1.08;;
56455;SDS011;42354;53.218;6.564;2022-12-07T01:21:21;11.00;;;1.17;;
56455;SDS011;42354;53.218;6.564;2022-12-07T01:23:51;5.78;;;1.00;;
56455;SDS011;42354;53.218;6.564;2022-12-07T01:26:18;8.32;;;1.33;;
56455;SDS011;42354;53.218;6.564;2022-12-07T01:28:45;12.88;;;1.30;;
56455;SDS011;42354;53.218;6.564;2022-12-07T01:31:12;8.98;;;1.13;;
56455;SDS011;42354;53.218;6.564;2022-12-07T01:33:42;13.38;;;2.30;;
56455;SDS011;42354;53.218;6.564;2022-12-07T01:38:43;9.82;;;0.88;;
56455;SDS011;42354;53.218;6.564;2022-12-07T01:41:10;6.95;;;0.90;;
56455;SDS011;42354;53.218;6.564;2022-12-07T01:43:36;4.88;;;0.70;;
56455;SDS011;42354;53.218;6.564;2022-12-07T01:46:02;9.48;;;0.68;;
56455;SDS011;42354;53.218;6.564;2022-12-07T01:48:36;10.40;;;0.80;;
56455;SDS011;42354;53.218;6.564;2022-12-07T01:51:06;4.50;;;0.90;;
56455;SDS011;42354;53.218;6.564;2022-12-07T01:53:36;9.07;;;0.95;;
56455;SDS011;42354;53.218;6.564;2022-12-07T01:56:04;6.18;;;0.70;;
56455;SDS011;42354;53.218;6.564;2022-12-07T01:58:33;8.98;;;0.90;;
56455;SDS011;42354;53.218;6.564;2022-12-07T02:00:58;4.22;;;0.82;;
56455;SDS011;42354;53.218;6.564;2022-12-07T02:03:26;12.50;;;1.20;;
56455;SDS011;42354;53.218;6.564;2022-12-07T02:05:57;8.25;;;0.98;;
56455;SDS011;42354;53.218;6.564;2022-12-07T02:08:24;11.80;;;1.08;;
56455;SDS011;42354;53.218;6.564;2022-12-07T02:10:49;8.82;;;0.90;;
56455;SDS011;42354;53.218;6.564;2022-12-07T02:13:16;7.15;;;1.15;;
56455;SDS011;42354;53.218;6.564;2022-12-07T02:16:09;11.80;;;1.55;;
56455;SDS011;42354;53.218;6.564;2022-12-07T02:21:29;12.35;;;1.30;;
56455;SDS011;42354;53.218;6.564;2022-12-07T02:24:14;11.65;;;1.90;;
56455;SDS011;42354;53.218;6.564;2022-12-07T02:29:58;11.32;;;1.58;;
56455;SDS011;42354;53.218;6.564;2022-12-07T02:32:29;9.25;;;1.48;;
56455;SDS011;42354;53.218;6.564;2022-12-07T02:35:05;14.25;;;1.48;;
56455;SDS011;42354;53.218;6.564;2022-12-07T02:40:34;8.48;;;1.05;;
56455;SDS011;42354;53.218;6.564;2022-12-07T02:43:07;13.27;;;1.50;;
56455;SDS011;42354;53.218;6.564;2022-12-07T02:45:38;10.75;;;1.45;;
56455;SDS011;42354;53.218;6.564;2022-12-07T02:48:06;12.40;;;2.15;;
56455;SDS011;42354;53.218;6.564;2022-12-07T02:50:34;10.07;;;1.30;;
56455;SDS011;42354;53.218;6.564;2022-12-07T02:53:00;8.27;;;1.30;;
56455;SDS011;42354;53.218;6.564;2022-12-07T02:55:27;5.75;;;1.02;;
56455;SDS011;42354;53.218;6.564;2022-12-07T02:58:41;7.97;;;0.90;;
56455;SDS011;42354;53.218;6.564;2022-12-07T03:03:42;9.45;;;0.70;;
56455;SDS011;42354;53.218;6.564;2022-12-07T03:06:20;4.88;;;0.73;;
56455;SDS011;42354;53.218;6.564;2022-12-07T03:08:56;7.30;;;0.90;;
56455;SDS011;42354;53.218;6.564;2022-12-07T03:14:15;6.35;;;0.70;;
56455;SDS011;42354;53.218;6.564;2022-12-07T03:16:52;5.70;;;0.70;;
56455;SDS011;42354;53.218;6.564;2022-12-07T03:19:22;5.70;;;0.90;;
56455;SDS011;42354;53.218;6.564;2022-12-07T03:21:55;5.50;;;0.50;;
56455;SDS011;42354;53.218;6.564;2022-12-07T03:24:31;4.53;;;0.70;;
56455;SDS011;42354;53.218;6.564;2022-12-07T03:27:06;10.05;;;1.10;;
56455;SDS011;42354;53.218;6.564;2022-12-07T03:29:37;15.02;;;1.20;;
56455;SDS011;42354;53.218;6.564;2022-12-07T03:32:10;5.03;;;0.98;;
56455;SDS011;42354;53.218;6.564;2022-12-07T03:34:43;9.88;;;0.70;;
56455;SDS011;42354;53.218;6.564;2022-12-07T03:37:16;8.57;;;0.80;;
56455;SDS011;42354;53.218;6.564;2022-12-07T03:39:46;8.23;;;0.70;;
56455;SDS011;42354;53.218;6.564;2022-12-07T03:42:36;12.40;;;0.80;;
56455;SDS011;42354;53.218;6.564;2022-12-07T03:45:02;3.80;;;0.55;;
56455;SDS011;42354;53.218;6.564;2022-12-07T03:47:31;12.40;;;0.60;;
56455;SDS011;42354;53.218;6.564;2022-12-07T03:52:58;10.70;;;0.73;;
56455;SDS011;42354;53.218;6.564;2022-12-07T03:55:29;7.40;;;0.73;;
56455;SDS011;42354;53.218;6.564;2022-12-07T03:58:05;5.35;;;0.73;;
56455;SDS011;42354;53.218;6.564;2022-12-07T04:00:34;7.90;;;0.85;;
56455;SDS011;42354;53.218;6.564;2022-12-07T04:02:59;5.78;;;1.10;;
56455;SDS011;42354;53.218;6.564;2022-12-07T04:05:25;9.25;;;1.38;;
56455;SDS011;42354;53.218;6.564;2022-12-07T04:07:51;5.57;;;1.08;;
56455;SDS011;42354;53.218;6.564;2022-12-07T04:10:16;7.30;;;1.55;;
56455;SDS011;42354;53.218;6.564;2022-12-07T04:12:42;5.95;;;1.80;;
56455;SDS011;42354;53.218;6.564;2022-12-07T04:15:07;10.52;;;1.73;;
56455;SDS011;42354;53.218;6.564;2022-12-07T04:17:33;6.07;;;1.42;;
56455;SDS011;42354;53.218;6.564;2022-12-07T04:19:58;6.25;;;1.48;;
56455;SDS011;42354;53.218;6.564;2022-12-07T04:22:24;5.00;;;1.20;;
56455;SDS011;42354;53.218;6.564;2022-12-07T04:24:49;13.55;;;1.15;;
56455;SDS011;42354;53.218;6.564;2022-12-07T04:27:14;14.65;;;1.45;;
56455;SDS011;42354;53.218;6.564;2022-12-07T04:29:40;7.97;;;0.77;;
56455;SDS011;42354;53.218;6.564;2022-12-07T04:32:05;7.90;;;1.13;;
56455;SDS011;42354;53.218;6.564;2022-12-07T04:34:31;6.93;;;0.73;;
56455;SDS011;42354;53.218;6.564;2022-12-07T04:36:56;9.38;;;1.00;;
56455;SDS011;42354;53.218;6.564;2022-12-07T04:39:26;16.02;;;1.92;;
56455;SDS011;42354;53.218;6.564;2022-12-07T04:41:55;8.95;;;1.58;;
56455;SDS011;42354;53.218;6.564;2022-12-07T04:44:22;7.82;;;0.88;;
56455;SDS011;42354;53.218;6.564;2022-12-07T04:46:49;12.85;;;0.80;;
56455;SDS011;42354;53.218;6.564;2022-12-07T04:49:15;6.20;;;0.50;;
56455;SDS011;42354;53.218;6.564;2022-12-07T04:51:41;10.43;;;1.13;;
56455;SDS011;42354;53.218;6.564;2022-12-07T04:54:06;9.00;;;0.70;;
56455;SDS011;42354;53.218;6.564;2022-12-07T04:56:32;6.88;;;1.50;;
56455;SDS011;42354;53.218;6.564;2022-12-07T04:59:00;12.05;;;0.95;;
56455;SDS011;42354;53.218;6.564;2022-12-07T05:01:26;7.88;;;1.55;;
56455;SDS011;42354;53.218;6.564;2022-12-07T05:03:51;6.45;;;1.08;;
56455;SDS011;42354;53.218;6.564;2022-12-07T05:06:18;11.68;;;1.67;;
56455;SDS011;42354;53.218;6.564;2022-12-07T05:08:43;8.50;;;1.20;;
56455;SDS011;42354;53.218;6.564;2022-12-07T05:11:09;8.13;;;1.40;;
56455;SDS011;42354;53.218;6.564;2022-12-07T05:13:55;11.38;;;1.45;;
56455;SDS011;42354;53.218;6.564;2022-12-07T05:16:21;4.18;;;0.90;;
56455;SDS011;42354;53.218;6.564;2022-12-07T05:18:46;5.78;;;0.80;;
56455;SDS011;42354;53.218;6.564;2022-12-07T05:21:11;4.60;;;0.70;;
56455;SDS011;42354;53.218;6.564;2022-12-07T05:23:37;7.75;;;0.70;;
56455;SDS011;42354;53.218;6.564;2022-12-07T05:26:02;4.75;;;0.70;;
56455;SDS011;42354;53.218;6.564;2022-12-07T05:28:27;15.60;;;1.05;;
56455;SDS011;42354;53.218;6.564;2022-12-07T05:30:53;8.07;;;0.90;;
56455;SDS011;42354;53.218;6.564;2022-12-07T05:33:18;8.50;;;1.17;;
56455;SDS011;42354;53.218;6.564;2022-12-07T05:35:43;5.78;;;1.10;;
56455;SDS011;42354;53.218;6.564;2022-12-07T05:38:09;4.95;;;0.80;;
56455;SDS011;42354;53.218;6.564;2022-12-07T05:40:34;4.85;;;0.70;;
56455;SDS011;42354;53.218;6.564;2022-12-07T05:43:01;10.73;;;0.98;;
56455;SDS011;42354;53.218;6.564;2022-12-07T05:45:26;14.95;;;1.48;;
56455;SDS011;42354;53.218;6.564;2022-12-07T05:47:51;9.63;;;1.10;;
56455;SDS011;42354;53.218;6.564;2022-12-07T05:50:17;7.60;;;0.98;;
56455;SDS011;42354;53.218;6.564;2022-12-07T05:52:42;17.33;;;1.35;;
56455;SDS011;42354;53.218;6.564;2022-12-07T05:55:07;9.85;;;1.33;;
56455;SDS011;42354;53.218;6.564;2022-12-07T05:57:33;11.52;;;1.35;;
56455;SDS011;42354;53.218;6.564;2022-12-07T05:59:58;10.85;;;1.55;;
56455;SDS011;42354;53.218;6.564;2022-12-07T06:02:23;14.05;;;1.20;;
56455;SDS011;42354;53.218;6.564;2022-12-07T06:04:49;9.63;;;1.25;;
56455;SDS011;42354;53.218;6.564;2022-12-07T06:07:15;11.38;;;1.63;;
56455;SDS011;42354;53.218;6.564;2022-12-07T06:09:41;16.75;;;1.25;;
56455;SDS011;42354;53.218;6.564;2022-12-07T06:12:08;11.70;;;1.42;;
56455;SDS011;42354;53.218;6.564;2022-12-07T06:14:53;11.05;;;1.45;;
56455;SDS011;42354;53.218;6.564;2022-12-07T06:17:19;11.20;;;1.63;;
56455;SDS011;42354;53.218;6.564;2022-12-07T06:19:44;10.40;;;1.70;;
56455;SDS011;42354;53.218;6.564;2022-12-07T06:22:10;10.38;;;0.98;;
56455;SDS011;42354;53.218;6.564;2022-12-07T06:24:36;7.45;;;1.10;;
56455;SDS011;42354;53.218;6.564;2022-12-07T06:27:02;9.25;;;1.10;;
56455;SDS011;42354;53.218;6.564;2022-12-07T06:29:28;25.15;;;2.85;;
56455;SDS011;42354;53.218;6.564;2022-12-07T06:31:53;9.02;;;1.40;;
56455;SDS011;42354;53.218;6.564;2022-12-07T06:34:19;10.75;;;0.80;;
56455;SDS011;42354;53.218;6.564;2022-12-07T06:36:49;6.82;;;1.00;;
56455;SDS011;42354;53.218;6.564;2022-12-07T06:39:21;4.03;;;0.77;;
56455;SDS011;42354;53.218;6.564;2022-12-07T06:41:49;5.93;;;0.90;;
56455;SDS011;42354;53.218;6.564;2022-12-07T06:44:16;12.00;;;0.90;;
56455;SDS011;42354;53.218;6.564;2022-12-07T06:46:42;16.60;;;1.13;;
56455;SDS011;42354;53.218;6.564;2022-12-07T06:49:08;5.72;;;1.00;;
56455;SDS011;42354;53.218;6.564;2022-12-07T06:51:33;14.68;;;1.20;;
56455;SDS011;42354;53.218;6.564;2022-12-07T06:54:01;12.07;;;1.05;;
56455;SDS011;42354;53.218;6.564;2022-12-07T06:56:29;6.95;;;1.17;;
56455;SDS011;42354;53.218;6.564;2022-12-07T06:58:55;11.88;;;1.13;;
56455;SDS011;42354;53.218;6.564;2022-12-07T07:01:21;11.38;;;1.10;;
56455;SDS011;42354;53.218;6.564;2022-12-07T07:03:47;8.40;;;1.02;;
56455;SDS011;42354;53.218;6.564;2022-12-07T07:06:13;7.50;;;1.02;;
56455;SDS011;42354;53.218;6.564;2022-12-07T07:08:38;7.35;;;1.30;;
56455;SDS011;42354;53.218;6.564;2022-12-07T07:11:04;6.28;;;0.98;;
56455;SDS011;42354;53.218;6.564;2022-12-07T07:13:30;9.00;;;0.90;;
56455;SDS011;42354;53.218;6.564;2022-12-07T07:15:56;8.30;;;1.25;;
56455;SDS011;42354;53.218;6.564;2022-12-07T07:18:21;7.63;;;0.93;;
56455;SDS011;42354;53.218;6.564;2022-12-07T07:20:47;5.45;;;0.80;;
56455;SDS011;42354;53.218;6.564;2022-12-07T07:23:13;15.85;;;1.55;;
56455;SDS011;42354;53.218;6.564;2022-12-07T07:25:38;8.77;;;0.85;;
56455;SDS011;42354;53.218;6.564;2022-12-07T07:28:04;6.93;;;1.10;;
56455;SDS011;42354;53.218;6.564;2022-12-07T07:30:29;6.53;;;0.80;;
56455;SDS011;42354;53.218;6.564;2022-12-07T07:32:56;10.88;;;1.02;;
56455;SDS011;42354;53.218;6.564;2022-12-07T07:35:23;7.75;;;1.05;;
56455;SDS011;42354;53.218;6.564;2022-12-07T07:37:48;6.65;;;0.98;;
56455;SDS011;42354;53.218;6.564;2022-12-07T07:40:14;6.20;;;0.82;;
56455;SDS011;42354;53.218;6.564;2022-12-07T07:42:39;10.70;;;1.15;;
56455;SDS011;42354;53.218;6.564;2022-12-07T07:45:04;3.08;;;0.80;;
56455;SDS011;42354;53.218;6.564;2022-12-07T07:47:30;8.20;;;1.00;;
56455;SDS011;42354;53.218;6.564;2022-12-07T07:49:55;5.43;;;1.00;;
56455;SDS011;42354;53.218;6.564;2022-12-07T07:52:22;10.05;;;1.10;;
56455;SDS011;42354;53.218;6.564;2022-12-07T07:54:47;7.07;;;1.25;;
56455;SDS011;42354;53.218;6.564;2022-12-07T07:57:12;7.25;;;1.17;;
56455;SDS011;42354;53.218;6.564;2022-12-07T07:59:39;7.15;;;1.40;;
56455;SDS011;42354;53.218;6.564;2022-12-07T08:02:05;9.90;;;1.40;;
56455;SDS011;42354;53.218;6.564;2022-12-07T08:04:30;9.57;;;1.33;;
56455;SDS011;42354;53.218;6.564;2022-12-07T08:06:56;12.07;;;1.40;;
56455;SDS011;42354;53.218;6.564;2022-12-07T08:09:21;8.45;;;1.40;;
56455;SDS011;42354;53.218;6.564;2022-12-07T08:11:47;9.38;;;1.30;;
56455;SDS011;42354;53.218;6.564;2022-12-07T08:14:12;9.18;;;1.45;;
56455;SDS011;42354;53.218;6.564;2022-12-07T08:16:37;10.55;;;2.28;;
56455;SDS011;42354;53.218;6.564;2022-12-07T08:19:04;16.50;;;2.55;;
56455;SDS011;42354;53.218;6.564;2022-12-07T08:21:30;8.35;;;2.55;;
56455;SDS011;42354;53.218;6.564;2022-12-07T08:23:56;12.38;;;2.67;;
56455;SDS011;42354;53.218;6.564;2022-12-07T08:26:22;10.40;;;2.20;;
56455;SDS011;42354;53.218;6.564;2022-12-07T08:28:47;19.85;;;3.53;;
56455;SDS011;42354;53.218;6.564;2022-12-07T08:31:14;10.75;;;1.80;;
56455;SDS011;42354;53.218;6.564;2022-12-07T08:33:45;13.27;;;2.33;;
56455;SDS011;42354;53.218;6.564;2022-12-07T08:36:12;6.05;;;1.42;;
56455;SDS011;42354;53.218;6.564;2022-12-07T08:38:39;12.13;;;2.40;;
56455;SDS011;42354;53.218;6.564;2022-12-07T08:41:05;11.10;;;2.65;;
56455;SDS011;42354;53.218;6.564;2022-12-07T08:43:31;15.73;;;1.73;;
56455;SDS011;42354;53.218;6.564;2022-12-07T08:46:06;10.32;;;1.70;;
56455;SDS011;42354;53.218;6.564;2022-12-07T08:48:48;12.27;;;1.55;;
56455;SDS011;42354;53.218;6.564;2022-12-07T08:51:17;12.45;;;1.30;;
56455;SDS011;42354;53.218;6.564;2022-12-07T08:53:43;10.30;;;1.30;;
56455;SDS011;42354;53.218;6.564;2022-12-07T08:56:11;11.85;;;1.52;;
56455;SDS011;42354;53.218;6.564;2022-12-07T08:58:37;9.02;;;1.45;;
56455;SDS011;42354;53.218;6.564;2022-12-07T09:01:05;11.48;;;1.20;;
56455;SDS011;42354;53.218;6.564;2022-12-07T09:03:30;9.13;;;1.30;;
56455;SDS011;42354;53.218;6.564;2022-12-07T09:05:56;7.05;;;1.13;;
56455;SDS011;42354;53.218;6.564;2022-12-07T09:08:22;14.00;;;1.40;;
56455;SDS011;42354;53.218;6.564;2022-12-07T09:10:51;9.65;;;1.63;;
56455;SDS011;42354;53.218;6.564;2022-12-07T09:13:17;13.35;;;1.63;;
56455;SDS011;42354;53.218;6.564;2022-12-07T09:15:42;14.35;;;1.40;;
56455;SDS011;42354;53.218;6.564;2022-12-07T09:18:07;13.40;;;1.60;;
56455;SDS011;42354;53.218;6.564;2022-12-07T09:20:32;14.35;;;1.50;;
56455;SDS011;42354;53.218;6.564;2022-12-07T09:22:58;11.85;;;1.30;;
56455;SDS011;42354;53.218;6.564;2022-12-07T09:25:24;7.65;;;1.20;;
56455;SDS011;42354;53.218;6.564;2022-12-07T09:27:55;8.88;;;1.60;;
56455;SDS011;42354;53.218;6.564;2022-12-07T09:30:21;10.38;;;1.20;;
56455;SDS011;42354;53.218;6.564;2022-12-07T09:32:46;4.70;;;0.90;;
56455;SDS011;42354;53.218;6.564;2022-12-07T09:35:12;4.03;;;1.08;;
56455;SDS011;42354;53.218;6.564;2022-12-07T09:37:39;6.35;;;1.00;;
56455;SDS011;42354;53.218;6.564;2022-12-07T09:40:04;3.90;;;1.10;;
56455;SDS011;42354;53.218;6.564;2022-12-07T09:42:37;4.65;;;0.70;;
56455;SDS011;42354;53.218;6.564;2022-12-07T09:45:19;6.28;;;0.70;;
56455;SDS011;42354;53.218;6.564;2022-12-07T09:47:46;6.88;;;0.90;;
56455;SDS011;42354;53.218;6.564;2022-12-07T09:50:13;5.78;;;1.05;;
56455;SDS011;42354;53.218;6.564;2022-12-07T09:52:44;9.95;;;1.00;;
56455;SDS011;42354;53.218;6.564;2022-12-07T09:55:13;5.93;;;1.05;;
56455;SDS011;42354;53.218;6.564;2022-12-07T09:57:50;5.70;;;0.85;;
56455;SDS011;42354;53.218;6.564;2022-12-07T10:00:17;7.20;;;0.80;;
56455;SDS011;42354;53.218;6.564;2022-12-07T10:02:57;4.88;;;0.80;;
56455;SDS011;42354;53.218;6.564;2022-12-07T10:08:03;6.57;;;0.90;;
56455;SDS011;42354;53.218;6.564;2022-12-07T10:10:33;7.82;;;1.20;;
56455;SDS011;42354;53.218;6.564;2022-12-07T10:13:10;9.30;;;1.00;;
56455;SDS011;42354;53.218;6.564;2022-12-07T10:15:40;8.23;;;1.27;;
56455;SDS011;42354;53.218;6.564;2022-12-07T10:18:13;8.77;;;1.00;;
56455;SDS011;42354;53.218;6.564;2022-12-07T10:20:43;12.68;;;1.30;;
56455;SDS011;42354;53.218;6.564;2022-12-07T10:23:14;11.90;;;1.95;;
56455;SDS011;42354;53.218;6.564;2022-12-07T10:25:42;11.23;;;1.80;;
56455;SDS011;42354;53.218;6.564;2022-12-07T10:30:45;10.90;;;1.67;;
56455;SDS011;42354;53.218;6.564;2022-12-07T10:36:47;8.90;;;1.52;;
56455;SDS011;42354;53.218;6.564;2022-12-07T10:39:03;7.88;;;1.10;;
56455;SDS011;42354;53.218;6.564;2022-12-07T10:41:59;15.18;;;1.58;;
56455;SDS011;42354;53.218;6.564;2022-12-07T10:44:30;12.07;;;1.40;;
56455;SDS011;42354;53.218;6.564;2022-12-07T10:52:17;10.20;;;1.35;;
56455;SDS011;42354;53.218;6.564;2022-12-07T11:00:33;7.80;;;0.90;;
56455;SDS011;42354;53.218;6.564;2022-12-07T11:03:25;8.02;;;1.25;;
56455;SDS011;42354;53.218;6.564;2022-12-07T11:06:13;4.97;;;0.98;;
56455;SDS011;42354;53.218;6.564;2022-12-07T11:26:05;12.48;;;1.60;;
56455;SDS011;42354;53.218;6.564;2022-12-07T11:28:50;7.18;;;1.10;;
56455;SDS011;42354;53.218;6.564;2022-12-07T11:32:17;10.35;;;1.45;;
56455;SDS011;42354;53.218;6.564;2022-12-07T11:34:37;6.05;;;1.35;;
56455;SDS011;42354;53.218;6.564;2022-12-07T11:37:13;16.58;;;1.52;;
56455;SDS011;42354;53.218;6.564;2022-12-07T11:39:52;8.38;;;1.00;;
56455;SDS011;42354;53.218;6.564;2022-12-07T11:42:29;10.18;;;1.20;;
56455;SDS011;42354;53.218;6.564;2022-12-07T11:45:10;23.70;;;2.75;;
56455;SDS011;42354;53.218;6.564;2022-12-07T11:47:54;8.70;;;1.10;;
56455;SDS011;42354;53.218;6.564;2022-12-07T11:53:19;6.25;;;1.10;;
56455;SDS011;42354;53.218;6.564;2022-12-07T12:01:44;6.65;;;1.13;;
56455;SDS011;42354;53.218;6.564;2022-12-07T12:06:54;11.20;;;1.63;;
56455;SDS011;42354;53.218;6.564;2022-12-07T12:17:57;11.30;;;1.15;;
56455;SDS011;42354;53.218;6.564;2022-12-07T12:20:43;8.17;;;1.23;;
56455;SDS011;42354;53.218;6.564;2022-12-07T12:23:21;5.82;;;1.30;;
56455;SDS011;42354;53.218;6.564;2022-12-07T12:25:56;8.85;;;1.25;;
56455;SDS011;42354;53.218;6.564;2022-12-07T12:33:34;26.02;;;4.25;;
56455;SDS011;42354;53.218;6.564;2022-12-07T12:39:26;7.88;;;1.70;;
56455;SDS011;42354;53.218;6.564;2022-12-07T12:44:01;7.13;;;0.80;;
56455;SDS011;42354;53.218;6.564;2022-12-07T12:51:46;7.57;;;1.73;;
56455;SDS011;42354;53.218;6.564;2022-12-07T13:02:16;8.52;;;1.13;;
56455;SDS011;42354;53.218;6.564;2022-12-07T13:15:41;6.22;;;1.08;;
56455;SDS011;42354;53.218;6.564;2022-12-07T13:20:46;7.65;;;1.15;;
56455;SDS011;42354;53.218;6.564;2022-12-07T13:23:13;6.75;;;1.75;;
56455;SDS011;42354;53.218;6.564;2022-12-07T13:25:45;7.03;;;1.30;;
56455;SDS011;42354;53.218;6.564;2022-12-07T13:28:19;4.55;;;1.08;;
56455;SDS011;42354;53.218;6.564;2022-12-07T13:30:54;4.88;;;0.90;;
56455;SDS011;42354;53.218;6.564;2022-12-07T13:33:27;4.97;;;0.90;;
56455;SDS011;42354;53.218;6.564;2022-12-07T13:35:54;3.75;;;0.82;;
56455;SDS011;42354;53.218;6.564;2022-12-07T13:38:31;10.05;;;1.15;;
56455;SDS011;42354;53.218;6.564;2022-12-07T13:41:02;5.90;;;0.90;;
56455;SDS011;42354;53.218;6.564;2022-12-07T13:43:43;2.45;;;0.60;;
56455;SDS011;42354;53.218;6.564;2022-12-07T13:46:10;6.93;;;0.93;;
56455;SDS011;42354;53.218;6.564;2022-12-07T13:48:48;4.60;;;0.50;;
56455;SDS011;42354;53.218;6.564;2022-12-07T13:51:19;5.18;;;0.95;;
56455;SDS011;42354;53.218;6.564;2022-12-07T13:53:47;4.22;;;0.50;;
56455;SDS011;42354;53.218;6.564;2022-12-07T13:56:18;3.78;;;0.60;;
56455;SDS011;42354;53.218;6.564;2022-12-07T13:58:46;1.70;;;0.40;;
56455;SDS011;42354;53.218;6.564;2022-12-07T14:01:12;2.83;;;0.40;;
56455;SDS011;42354;53.218;6.564;2022-12-07T14:03:38;2.47;;;0.77;;
56455;SDS011;42354;53.218;6.564;2022-12-07T14:06:06;2.17;;;0.60;;
56455;SDS011;42354;53.218;6.564;2022-12-07T14:08:39;3.72;;;0.70;;
56455;SDS011;42354;53.218;6.564;2022-12-07T14:11:04;5.95;;;1.15;;
56455;SDS011;42354;53.218;6.564;2022-12-07T14:13:38;6.68;;;1.35;;
56455;SDS011;42354;53.218;6.564;2022-12-07T14:16:21;10.05;;;2.72;;
56455;SDS011;42354;53.218;6.564;2022-12-07T14:18:50;12.95;;;2.75;;
56455;SDS011;42354;53.218;6.564;2022-12-07T14:21:17;12.48;;;3.08;;
56455;SDS011;42354;53.218;6.564;2022-12-07T14:23:45;13.43;;;2.25;;
56455;SDS011;42354;53.218;6.564;2022-12-07T14:26:40;6.20;;;1.75;;
56455;SDS011;42354;53.218;6.564;2022-12-07T14:29:18;11.27;;;2.40;;
56455;SDS011;42354;53.218;6.564;2022-12-07T14:32:17;7.70;;;1.48;;
56455;SDS011;42354;53.218;6.564;2022-12-07T14:37:28;6.93;;;1.25;;
56455;SDS011;42354;53.218;6.564;2022-12-07T14:39:55;7.18;;;1.23;;
56455;SDS011;42354;53.218;6.564;2022-12-07T14:42:22;7.47;;;1.75;;
56455;SDS011;42354;53.218;6.564;2022-12-07T14:44:50;5.63;;;1.80;;
56455;SDS011;42354;53.218;6.564;2022-12-07T14:47:15;6.25;;;1.73;;
56455;SDS011;42354;53.218;6.564;2022-12-07T14:49:40;2.97;;;0.90;;
56455;SDS011;42354;53.218;6.564;2022-12-07T14:52:06;6.07;;;0.55;;
56455;SDS011;42354;53.218;6.564;2022-12-07T14:54:38;6.05;;;0.80;;
56455;SDS011;42354;53.218;6.564;2022-12-07T14:57:03;4.70;;;0.80;;
56455;SDS011;42354;53.218;6.564;2022-12-07T14:59:29;2.65;;;1.00;;
56455;SDS011;42354;53.218;6.564;2022-12-07T15:01:54;2.65;;;0.85;;
56455;SDS011;42354;53.218;6.564;2022-12-07T15:04:19;4.32;;;0.60;;
56455;SDS011;42354;53.218;6.564;2022-12-07T15:06:58;4.32;;;1.00;;
56455;SDS011;42354;53.218;6.564;2022-12-07T15:09:25;4.00;;;0.70;;
56455;SDS011;42354;53.218;6.564;2022-12-07T15:11:50;3.35;;;0.80;;
56455;SDS011;42354;53.218;6.564;2022-12-07T15:14:16;3.47;;;0.77;;
56455;SDS011;42354;53.218;6.564;2022-12-07T15:16:42;6.00;;;1.20;;
56455;SDS011;42354;53.218;6.564;2022-12-07T15:19:14;4.30;;;1.45;;
56455;SDS011;42354;53.218;6.564;2022-12-07T15:21:42;7.50;;;2.15;;
56455;SDS011;42354;53.218;6.564;2022-12-07T15:24:12;8.52;;;2.10;;
56455;SDS011;42354;53.218;6.564;2022-12-07T15:26:38;6.80;;;1.77;;
56455;SDS011;42354;53.218;6.564;2022-12-07T15:29:04;12.13;;;3.35;;
56455;SDS011;42354;53.218;6.564;2022-12-07T15:31:30;8.20;;;3.55;;
56455;SDS011;42354;53.218;6.564;2022-12-07T15:33:55;9.38;;;3.15;;
56455;SDS011;42354;53.218;6.564;2022-12-07T15:36:22;7.13;;;2.42;;
56455;SDS011;42354;53.218;6.564;2022-12-07T15:38:49;11.80;;;2.65;;
56455;SDS011;42354;53.218;6.564;2022-12-07T15:41:15;11.68;;;2.40;;
56455;SDS011;42354;53.218;6.564;2022-12-07T15:43:40;7.28;;;1.65;;
56455;SDS011;42354;53.218;6.564;2022-12-07T15:46:35;8.88;;;1.60;;
56455;SDS011;42354;53.218;6.564;2022-12-07T15:49:03;5.90;;;1.70;;
56455;SDS011;42354;53.218;6.564;2022-12-07T15:51:31;5.80;;;1.67;;
56455;SDS011;42354;53.218;6.564;2022-12-07T15:53:57;5.70;;;1.92;;
56455;SDS011;42354;53.218;6.564;2022-12-07T15:56:23;9.60;;;1.77;;
56455;SDS011;42354;53.218;6.564;2022-12-07T15:58:48;7.93;;;1.60;;
56455;SDS011;42354;53.218;6.564;2022-12-07T16:01:14;7.22;;;1.77;;
56455;SDS011;42354;53.218;6.564;2022-12-07T16:03:41;6.72;;;1.60;;
56455;SDS011;42354;53.218;6.564;2022-12-07T16:06:07;6.10;;;2.10;;
56455;SDS011;42354;53.218;6.564;2022-12-07T16:08:33;5.32;;;2.00;;
56455;SDS011;42354;53.218;6.564;2022-12-07T16:10:58;12.20;;;2.90;;
56455;SDS011;42354;53.218;6.564;2022-12-07T16:13:24;9.32;;;2.80;;
56455;SDS011;42354;53.218;6.564;2022-12-07T16:15:49;10.40;;;3.70;;
56455;SDS011;42354;53.218;6.564;2022-12-07T16:18:15;10.60;;;3.13;;
56455;SDS011;42354;53.218;6.564;2022-12-07T16:20:40;12.85;;;3.08;;
56455;SDS011;42354;53.218;6.564;2022-12-07T16:23:06;10.57;;;2.10;;
56455;SDS011;42354;53.218;6.564;2022-12-07T16:25:32;6.53;;;1.70;;
56455;SDS011;42354;53.218;6.564;2022-12-07T16:27:57;6.15;;;1.63;;
56455;SDS011;42354;53.218;6.564;2022-12-07T16:30:23;7.70;;;1.75;;
56455;SDS011;42354;53.218;6.564;2022-12-07T16:32:48;7.07;;;1.48;;
56455;SDS011;42354;53.218;6.564;2022-12-07T16:35:14;6.80;;;1.33;;
56455;SDS011;42354;53.218;6.564;2022-12-07T16:37:41;4.43;;;1.00;;
56455;SDS011;42354;53.218;6.564;2022-12-07T16:40:07;4.90;;;1.10;;
56455;SDS011;42354;53.218;6.564;2022-12-07T16:42:33;4.35;;;1.30;;
56455;SDS011;42354;53.218;6.564;2022-12-07T16:45:00;4.13;;;0.98;;
56455;SDS011;42354;53.218;6.564;2022-12-07T16:47:27;4.18;;;1.00;;
56455;SDS011;42354;53.218;6.564;2022-12-07T16:49:53;5.45;;;1.73;;